Time;durP1;ratioP1;P1;durP2;ratioP2;P2;SDS_P1;SDS_P2;PMS_P1;PMS_P2;Temp;Humidity;BMP_temperature;BMP_pressure;BME280_temperature;BME280_humidity;BME280_pressure;Samples;Min_cycle;Max_cycle;Signal;HPM_P1;HPM_P2
2023/09/01 00:11:14;;;;;;;13.00;9.10;;;;;;;11.15;83.39;98486.07;434402;1253;97915;-42
2023/09/01 00:21:20;;;;;;;9.90;7.70;;;;;;;11.05;83.67;98486.61;434382;1253;110269;-42
2023/09/01 00:31:27;;;;;;;8.60;7.50;;;;;;;11.06;84.03;98491.07;434076;1257;353370;-42
2023/09/01 00:41:34;;;;;;;10.50;7.00;;;;;;;11.12;84.17;98485.45;434411;1253;97906;-42
2023/09/01 00:51:46;;;;;;;11.30;7.30;;;;;;;11.19;84.10;98487.46;435361;1254;107291;-43
2023/09/01 01:01:54;;;;;;;10.80;6.20;;;;;;;11.25;84.09;98498.47;435184;1254;98524;-41
2023/09/01 01:12:06;;;;;;;9.40;6.30;;;;;;;11.30;83.98;98501.52;435406;1251;109435;-43
2023/09/01 01:22:14;;;;;;;8.30;5.80;;;;;;;11.42;84.47;98509.84;436387;1251;108868;-43
2023/09/01 01:32:20;;;;;;;6.80;5.00;;;;;;;11.89;84.39;98516.43;435178;1267;97900;-43
2023/09/01 01:42:33;;;;;;;9.20;4.30;;;;;;;12.24;84.19;98517.25;435258;1256;110506;-43
2023/09/01 01:52:39;;;;;;;7.20;4.90;;;;;;;12.43;83.82;98511.91;435191;1256;107469;-43
2023/09/01 02:12:53;;;;;;;6.00;4.30;;;;;;;12.44;83.34;98518.59;435163;1255;109861;-43
2023/09/01 02:33:07;;;;;;;5.10;3.00;;;;;;;12.44;82.95;98519.34;435249;1251;97987;-43
2023/09/01 02:43:14;;;;;;;4.90;3.30;;;;;;;12.31;82.63;98513.69;435392;1251;107866;-43
2023/09/01 02:53:22;;;;;;;6.30;3.60;;;;;;;12.09;82.75;98523.75;435286;1251;97876;-42
2023/09/01 03:13:36;;;;;;;5.80;3.20;;;;;;;11.98;82.46;98526.86;435352;1254;108794;-42
2023/09/01 03:23:43;;;;;;;9.00;3.70;;;;;;;11.91;82.27;98526.13;435406;1256;98130;-42
2023/09/01 03:43:55;;;;;;;8.60;3.60;;;;;;;11.52;82.27;98523.94;435205;1255;108253;-42
2023/09/01 03:54:02;;;;;;;10.50;3.80;;;;;;;11.46;82.23;98522.05;435437;1251;96692;-42
2023/09/01 04:04:10;;;;;;;7.00;3.20;;;;;;;11.52;82.41;98527.81;435255;1255;109309;-43
2023/09/01 04:14:17;;;;;;;5.90;4.10;;;;;;;11.51;82.51;98528.05;435299;1251;97513;-43
2023/09/01 04:34:30;;;;;;;5.40;3.90;;;;;;;11.64;82.39;98540.95;435228;1257;108482;-43
2023/09/01 04:44:37;;;;;;;8.40;3.80;;;;;;;11.79;82.34;98542.59;435315;1253;97867;-43
2023/09/01 04:54:44;;;;;;;8.00;4.20;;;;;;;12.09;82.50;98555.83;435274;1251;110565;-42
2023/09/01 05:04:50;;;;;;;6.50;4.60;;;;;;;12.42;82.48;98557.45;435249;1255;108155;-41
2023/09/01 05:14:57;;;;;;;7.60;5.20;;;;;;;13.52;82.90;98561.80;435430;1251;118263;-43
2023/09/01 05:25:04;;;;;;;7.10;4.40;;;;;;;14.74;82.26;98564.40;435269;1251;107634;-42
2023/09/01 05:35:09;;;;;;;8.80;5.90;;;;;;;15.68;81.39;98558.15;435496;1251;97887;-44
2023/09/01 05:45:16;;;;;;;13.00;5.70;;;;;;;16.60;80.47;98563.07;435399;1255;111560;-43
2023/09/01 05:55:23;;;;;;;12.50;5.00;;;;;;;17.66;79.89;98573.23;435335;1255;108535;-42
2023/09/01 06:25:42;;;;;;;7.60;3.20;;;;;;;19.88;75.17;98590.48;435209;1251;97163;-42
2023/09/01 06:35:48;;;;;;;6.00;3.50;;;;;;;20.32;73.68;98598.34;435375;1255;110254;-41
2023/09/01 06:45:56;;;;;;;5.30;3.50;;;;;;;21.09;72.66;98598.80;435369;1256;108789;-42
2023/09/01 06:56:02;;;;;;;;;;;;;;;21.51;71.14;98594.84;435519;1255;98131;-42
2023/09/01 07:06:09;;;;;;;3.60;2.60;;;;;;;21.97;70.02;98603.36;435248;1255;110365;-41
2023/09/01 07:16:15;;;;;;;4.60;2.90;;;;;;;22.12;68.19;98608.31;435213;1256;109512;-42
2023/09/01 07:26:21;;;;;;;5.40;2.70;;;;;;;22.21;66.70;98608.48;435354;1251;97843;-42
2023/09/01 07:56:39;;;;;;;7.40;3.00;;;;;;;21.92;64.50;98620.09;435220;1256;121910;-43
2023/09/01 08:06:45;;;;;;;3.60;2.10;;;;;;;22.20;63.82;98621.05;435223;1251;107613;-42
2023/09/01 08:16:52;;;;;;;5.60;2.30;;;;;;;22.01;62.43;98619.21;435421;1251;97885;-42
2023/09/01 08:27:01;;;;;;;4.00;2.50;;;;;;;22.07;61.59;98619.01;435341;1251;110748;-42
2023/09/01 08:37:08;;;;;;;5.20;2.60;;;;;;;22.09;60.79;98614.95;435328;1251;109404;-43
2023/09/01 09:17:39;;;;;;;4.10;2.40;;;;;;;23.03;58.99;98617.71;435338;1255;97909;-42
2023/09/01 09:27:44;;;;;;;6.80;2.30;;;;;;;22.58;57.33;98623.48;435382;1252;107335;-43
2023/09/01 09:37:59;;;;;;;5.00;3.00;;;;;;;22.24;56.63;98627.80;435236;1251;97173;-42
2023/09/01 09:48:06;;;;;;;5.50;2.60;;;;;;;22.28;56.66;98634.95;435284;1256;110656;-41
2023/09/01 09:58:17;;;;;;;4.10;2.50;;;;;;;22.59;56.22;98628.60;435426;1253;108776;-42
2023/09/01 10:08:25;;;;;;;8.90;2.50;;;;;;;23.09;56.44;98627.48;435162;1256;97903;-41
2023/09/01 10:18:34;;;;;;;6.70;2.70;;;;;;;23.12;55.63;98631.34;435205;1253;109508;-41
2023/09/01 10:49:10;;;;;;;9.20;2.80;;;;;;;22.48;55.28;98638.95;435414;1256;109589;-44
2023/09/01 10:59:30;;;;;;;5.00;2.40;;;;;;;22.98;54.40;98632.52;435470;1256;107460;-42
2023/09/01 11:09:47;;;;;;;5.70;2.20;;;;;;;23.24;54.29;98625.81;435013;1255;96633;-41
2023/09/01 11:19:54;;;;;;;5.90;2.20;;;;;;;22.96;53.51;98622.85;435412;1256;109844;-42
2023/09/01 11:40:12;;;;;;;5.30;2.70;;;;;;;23.19;52.92;98638.14;435373;1264;97902;-42
2023/09/01 12:10:43;;;;;;;4.70;2.60;;;;;;;22.95;52.94;98617.38;435178;1253;97884;-44
2023/09/01 12:20:49;;;;;;;8.80;2.90;;;;;;;22.34;53.43;98617.80;435435;1251;109601;-42
2023/09/01 12:30:56;;;;;;;4.00;2.50;;;;;;;22.11;53.99;98615.89;435003;1256;448014;-44
2023/09/01 12:41:02;;;;;;;5.40;3.40;;;;;;;22.41;53.85;98620.00;435423;1256;97891;-44
2023/09/01 12:51:10;;;;;;;3.30;2.30;;;;;;;22.44;53.33;98620.06;435307;1255;110624;-43
2023/09/01 13:01:19;;;;;;;7.90;3.40;;;;;;;22.42;53.70;98625.95;435342;1256;108236;-42
2023/09/01 13:11:26;;;;;;;4.50;2.70;;;;;;;22.33;53.91;98618.27;435275;1255;97772;-42
2023/09/01 13:21:32;;;;;;;5.40;2.50;;;;;;;22.25;53.93;98611.86;435318;1253;110554;-43
2023/09/01 13:31:39;;;;;;;5.50;2.70;;;;;;;22.06;54.11;98615.44;435307;1256;106672;-43
2023/09/01 13:41:46;;;;;;;6.50;3.10;;;;;;;22.01;54.28;98612.76;435377;1256;97893;-42
2023/09/01 13:51:52;;;;;;;4.40;3.10;;;;;;;21.77;54.89;98611.06;435165;1256;110541;-42
2023/09/01 14:12:05;;;;;;;7.60;3.20;;;;;;;21.91;55.21;98594.45;435333;1256;97473;-44
2023/09/01 14:22:12;;;;;;;7.30;2.30;;;;;;;21.57;55.70;98606.61;435350;1255;110148;-43
2023/09/01 14:32:18;;;;;;;5.20;2.70;;;;;;;21.40;55.95;98615.68;435222;1256;107820;-44
2023/09/01 14:42:24;;;;;;;6.80;3.40;;;;;;;21.50;56.40;98606.98;435340;1256;98379;-43
2023/09/01 14:52:31;;;;;;;7.90;2.70;;;;;;;21.67;56.52;98609.99;435272;1256;106714;-42
2023/09/01 15:02:38;;;;;;;4.80;3.00;;;;;;;21.68;56.59;98612.19;435205;1265;97348;-43
2023/09/01 15:12:44;;;;;;;7.50;2.80;;;;;;;21.77;56.88;98606.30;435231;1252;112564;-43
2023/09/01 15:22:50;;;;;;;7.80;3.30;;;;;;;21.52;56.91;98606.02;435294;1257;108203;-42
2023/09/01 15:32:57;;;;;;;5.10;3.00;;;;;;;21.35;57.24;98604.88;435373;1251;97979;-44
2023/09/01 15:43:06;;;;;;;5.80;3.60;;;;;;;21.20;57.49;98612.90;435261;1255;110952;-44
2023/09/01 15:53:14;;;;;;;4.70;2.60;;;;;;;21.02;57.94;98605.44;435311;1256;108669;-44
2023/09/01 16:03:22;;;;;;;5.70;2.50;;;;;;;20.87;58.21;98598.15;435285;1264;117681;-44
2023/09/01 16:33:59;;;;;;;7.40;3.50;;;;;;;20.34;59.63;98605.88;435208;1264;109711;-45
2023/09/01 16:44:04;;;;;;;7.70;4.10;;;;;;;20.13;59.91;98601.36;435335;1255;109387;-42
2023/09/01 16:54:12;;;;;;;6.00;3.70;;;;;;;19.84;60.45;98600.24;435381;1251;97899;-43
2023/09/01 17:04:19;;;;;;;9.10;3.90;;;;;;;19.54;61.04;98599.90;435365;1264;108373;-45
2023/09/01 17:14:26;;;;;;;9.60;3.60;;;;;;;19.29;61.74;98612.16;435288;1251;97010;-43
2023/09/01 17:24:32;;;;;;;9.60;4.20;;;;;;;18.96;62.27;98614.62;435415;1263;111369;-42
2023/09/01 17:34:38;;;;;;;6.60;4.60;;;;;;;18.66;62.94;98619.21;435079;1251;107659;-44
2023/09/01 17:44:45;;;;;;;9.20;5.50;;;;;;;18.59;63.51;98624.82;435158;1251;96618;-42
2023/09/01 17:54:52;;;;;;;6.60;4.30;;;;;;;18.45;63.78;98630.95;435435;1251;110153;-43
2023/09/01 18:05:00;;;;;;;11.30;5.80;;;;;;;18.25;64.43;98642.13;435220;1257;108893;-43
2023/09/01 18:35:20;;;;;;;19.40;12.50;;;;;;;17.32;66.12;98653.77;435210;1257;107756;-43
2023/09/01 18:55:42;;;;;;;22.30;12.20;;;;;;;16.98;67.75;98655.41;435098;1251;109491;-43
2023/09/01 19:05:50;;;;;;;23.20;15.90;;;;;;;16.94;68.12;98653.83;435244;1251;97884;-43
2023/09/01 19:16:00;;;;;;;21.70;13.00;;;;;;;16.69;68.20;98650.64;435179;1257;109790;-43
2023/09/01 19:26:09;;;;;;;16.20;9.10;;;;;;;16.52;68.94;98662.41;435344;1255;106098;-43
2023/09/01 19:36:16;;;;;;;;;;;;;;;16.56;69.57;98669.69;435346;1251;96765;-44
2023/09/01 19:46:23;;;;;;;15.90;7.80;;;;;;;16.63;70.23;98680.21;435236;1256;107220;-43
2023/09/01 19:56:27;;;;;;;13.70;7.00;;;;;;;16.68;70.63;98687.50;435222;1251;97867;-43
2023/09/01 20:16:40;;;;;;;11.00;6.90;;;;;;;16.65;71.16;98690.20;435381;1257;108544;-43
2023/09/01 20:36:52;;;;;;;13.10;6.70;;;;;;;16.58;71.72;98696.55;435128;1251;110694;-43
2023/09/01 20:57:04;;;;;;;14.70;7.30;;;;;;;16.38;72.71;98699.84;435336;1256;97356;-42
2023/09/01 21:07:10;;;;;;;13.10;7.00;;;;;;;16.27;73.10;98701.42;435254;1255;108840;-42
2023/09/01 21:17:18;;;;;;;9.80;6.90;;;;;;;16.24;73.42;98698.80;435208;1256;108323;-44
2023/09/01 21:27:25;;;;;;;14.00;7.90;;;;;;;16.21;73.86;98698.64;435213;1251;97887;-44
2023/09/01 21:47:40;;;;;;;10.50;7.50;;;;;;;16.11;74.64;98704.02;435235;1256;97928;-43
2023/09/01 22:07:57;;;;;;;10.40;8.20;;;;;;;15.99;75.40;98714.54;435273;1251;107686;-42
2023/09/01 22:18:05;;;;;;;12.40;7.40;;;;;;;15.94;75.62;98711.77;435194;1256;97052;-43
2023/09/01 22:38:15;;;;;;;11.60;5.60;;;;;;;16.00;76.39;98707.92;435214;1255;97595;-44
2023/09/01 22:48:22;;;;;;;9.30;5.80;;;;;;;16.04;76.66;98705.64;435355;1252;112987;-43
2023/09/01 22:58:29;;;;;;;11.10;7.20;;;;;;;16.22;77.15;98703.30;435328;1251;108132;-42
2023/09/01 23:08:35;;;;;;;11.60;7.60;;;;;;;16.30;77.04;98708.10;435204;1253;97878;-41
2023/09/01 23:18:42;;;;;;;13.40;6.70;;;;;;;16.27;77.24;98704.46;435299;1255;108321;-41
2023/09/01 23:28:49;;;;;;;12.50;7.90;;;;;;;16.41;77.24;98710.95;435208;1269;97921;-41
2023/09/01 23:38:56;;;;;;;12.90;7.20;;;;;;;16.42;77.50;98705.14;435142;1255;110104;-41
2023/09/01 23:59:10;;;;;;;12.80;8.60;;;;;;;16.35;77.84;98713.61;435292;1251;97895;-42
